Mooresboro, North Carolina
Current Conditions -  °F | °C
As of 8:35 AM on Saturday 01 Nov 2014 (Local Time) from KEHO Reporting Station
Light Rain Light Rain  
Wind Chill: 32°   Ceiling: 3100
Heat Index: 40°   Visibility: 10mi
Dew Point: 36°   Wind: 12mph
Humidity: 87%   Direction: 340°NNW
Pressure: 29.77"   Gusts: NA
Location:  35.3°N, 81.7°W
Report Text: KEHO 011235Z AUTO 34010KT 10SM -RA SCT025 BKN031 OVC060 04/02 A2977 RMK AO2 T00420022
Loading
Personal Weather Stations






























Interactive Weather Map
Tropical Storm Tracking
New forecast layout! Learn more

10-Day Weather Forecast

Advertisements
Track Severe Weather on mobile